createdAt,value
2019-06-26T00:00:21.093Z,71.72
2019-06-26T00:01:21.109Z,71.98
2019-06-26T00:02:21.091Z,71.68
2019-06-26T00:03:21.078Z,71.78
2019-06-26T00:04:21.059Z,72.21
2019-06-26T00:05:21.087Z,71.81
2019-06-26T00:06:21.033Z,71.68
2019-06-26T00:07:21.019Z,71.91
2019-06-26T00:08:21.021Z,71.72
2019-06-26T00:09:21.029Z,71.88
2019-06-26T00:10:20.996Z,71.81
2019-06-26T00:11:21.073Z,72.01
2019-06-26T00:12:20.976Z,72.21
2019-06-26T00:13:26.178Z,72.01
2019-06-26T00:14:21.949Z,72.01
2019-06-26T00:15:20.955Z,71.91
2019-06-26T00:16:20.931Z,72.31
2019-06-26T00:17:20.971Z,72.61
2019-06-26T00:18:20.929Z,72.71
2019-06-26T00:19:20.897Z,73.11
2019-06-26T00:20:20.875Z,72.91
2019-06-26T00:21:22.032Z,73.00
2019-06-26T00:22:20.899Z,73.11
2019-06-26T00:23:20.896Z,73.60
2019-06-26T00:24:20.842Z,73.30
2019-06-26T00:25:20.825Z,73.90
2019-06-26T00:26:20.886Z,73.80
2019-06-26T00:27:20.818Z,73.80
2019-06-26T00:28:20.838Z,73.70
2019-06-26T00:29:20.850Z,74.40
2019-06-26T00:30:20.793Z,74.20
2019-06-26T00:31:20.771Z,74.50
2019-06-26T00:32:20.755Z,74.69
2019-06-26T00:33:20.738Z,74.60
2019-06-26T00:34:20.745Z,74.80
2019-06-26T00:35:20.754Z,74.80
2019-06-26T00:36:20.795Z,75.40
2019-06-26T00:37:20.700Z,75.79
2019-06-26T00:38:20.697Z,75.59
2019-06-26T00:39:20.687Z,76.39
2019-06-26T00:40:20.666Z,76.23
2019-06-26T00:41:20.710Z,76.23
2019-06-26T00:42:20.636Z,76.49
2019-06-26T00:43:20.644Z,75.53
2019-06-26T00:44:20.621Z,75.93
2019-06-26T00:45:20.619Z,77.02
2019-06-26T00:46:20.591Z,77.52
2019-06-26T00:47:20.623Z,76.62
2019-06-26T00:48:20.575Z,77.52
2019-06-26T00:49:20.561Z,76.82
2019-06-26T00:50:20.551Z,77.66
2019-06-26T00:51:20.555Z,77.32
2019-06-26T00:52:20.538Z,77.36
2019-06-26T00:53:20.763Z,77.46
2019-06-26T00:54:20.518Z,77.56
2019-06-26T00:55:20.524Z,76.96
2019-06-26T00:56:20.494Z,77.56
2019-06-26T00:57:20.495Z,77.56
2019-06-26T00:58:20.473Z,77.06
2019-06-26T00:59:20.500Z,77.06
2019-06-26T01:00:20.450Z,77.56
2019-06-26T01:01:20.444Z,77.06
2019-06-26T01:02:20.415Z,76.96
2019-06-26T01:03:20.416Z,77.66
2019-06-26T01:04:20.403Z,77.06
2019-06-26T01:05:20.434Z,76.76
2019-06-26T01:06:20.376Z,75.57
2019-06-26T01:07:20.372Z,76.46
2019-06-26T01:08:20.390Z,76.66
2019-06-26T01:09:20.351Z,76.86
2019-06-26T01:10:20.338Z,76.76
2019-06-26T01:11:21.652Z,77.36
2019-06-26T01:12:20.313Z,77.46
2019-06-26T01:13:20.308Z,77.56
2019-06-26T01:14:20.293Z,77.46
2019-06-26T01:15:20.282Z,77.56
2019-06-26T01:16:20.269Z,77.29
2019-06-26T01:17:20.330Z,77.29
2019-06-26T01:18:20.242Z,77.89
2019-06-26T01:19:20.235Z,78.09
2019-06-26T01:20:20.234Z,77.99
2019-06-26T01:21:20.275Z,77.69
2019-06-26T01:22:20.222Z,78.39
2019-06-26T01:23:20.240Z,78.59
2019-06-26T01:24:20.181Z,78.29
2019-06-26T01:25:20.181Z,78.59
2019-06-26T01:26:20.155Z,78.39
2019-06-26T01:27:20.177Z,78.99
2019-06-26T01:28:20.151Z,78.89
2019-06-26T01:29:20.154Z,78.79
2019-06-26T01:30:20.119Z,78.49
2019-06-26T01:31:20.108Z,78.79
2019-06-26T01:32:20.115Z,79.19
2019-06-26T01:33:20.088Z,78.73
2019-06-26T01:34:20.070Z,78.79
2019-06-26T01:35:20.107Z,78.73
2019-06-26T01:36:20.089Z,79.22
2019-06-26T01:37:20.039Z,80.02
2019-06-26T01:38:20.024Z,80.52
2019-06-26T01:39:20.010Z,79.93
2019-06-26T01:40:20.005Z,79.93
2019-06-26T01:41:20.038Z,80.72
2019-06-26T01:42:19.982Z,80.32
2019-06-26T01:43:19.970Z,80.42
2019-06-26T01:44:19.954Z,80.12
2019-06-26T01:45:19.948Z,80.52
2019-06-26T01:46:19.938Z,80.46
2019-06-26T01:47:19.970Z,80.42
2019-06-26T01:48:19.909Z,80.46
2019-06-26T01:49:19.953Z,81.16
2019-06-26T01:50:19.897Z,80.46
2019-06-26T01:51:19.879Z,80.66
2019-06-26T01:52:19.876Z,81.06
2019-06-26T01:53:19.898Z,81.06
2019-06-26T01:54:19.846Z,81.36
2019-06-26T01:55:19.850Z,81.46
2019-06-26T01:56:19.825Z,81.56
2019-06-26T01:57:19.811Z,81.16
2019-06-26T01:58:19.806Z,81.96
2019-06-26T01:59:19.838Z,82.06
2019-06-26T02:00:19.779Z,81.85
2019-06-26T02:01:19.766Z,82.09
2019-06-26T02:02:19.761Z,81.96
2019-06-26T02:03:19.784Z,82.26
2019-06-26T02:04:19.734Z,82.09
2019-06-26T02:05:19.759Z,82.56
2019-06-26T02:06:19.707Z,82.06
2019-06-26T02:07:19.697Z,82.65
2019-06-26T02:08:19.684Z,82.59
2019-06-26T02:09:19.679Z,82.56
2019-06-26T02:10:19.693Z,82.50
2019-06-26T02:11:19.712Z,83.09
2019-06-26T02:12:19.650Z,82.89
2019-06-26T02:13:19.639Z,82.89
2019-06-26T02:14:30.450Z,83.19
2019-06-26T02:15:20.653Z,83.19
2019-06-26T02:16:19.610Z,83.19
2019-06-26T02:17:19.626Z,83.83
2019-06-26T02:18:19.578Z,83.43
2019-06-26T02:19:19.624Z,83.53
2019-06-26T02:20:19.567Z,83.73
2019-06-26T02:21:19.542Z,83.93
2019-06-26T02:22:19.556Z,84.13
2019-06-26T02:23:19.581Z,83.83
2019-06-26T02:24:19.530Z,83.53
2019-06-26T02:25:19.507Z,84.23
2019-06-26T02:26:19.488Z,83.83
2019-06-26T02:27:19.474Z,83.33
2019-06-26T02:28:19.496Z,84.13
2019-06-26T02:29:19.537Z,83.43
2019-06-26T02:30:19.442Z,84.03
2019-06-26T02:31:19.451Z,84.09
2019-06-26T02:32:19.428Z,84.09
2019-06-26T02:33:19.411Z,83.83
2019-06-26T02:34:19.400Z,83.93
2019-06-26T02:35:19.438Z,84.03
2019-06-26T02:36:19.371Z,84.13
2019-06-26T02:37:19.358Z,83.87
2019-06-26T02:38:19.375Z,84.67
2019-06-26T02:39:19.346Z,84.67
2019-06-26T02:40:19.339Z,85.07
2019-06-26T02:41:19.353Z,84.57
2019-06-26T02:42:19.309Z,84.77
2019-06-26T02:43:19.309Z,84.77
2019-06-26T02:44:19.291Z,85.37
2019-06-26T02:45:19.277Z,84.47
2019-06-26T02:46:19.254Z,85.27
2019-06-26T02:47:20.956Z,85.37
2019-06-26T02:48:19.255Z,85.37
2019-06-26T02:49:19.254Z,85.37
2019-06-26T02:50:19.221Z,85.37
2019-06-26T02:51:19.203Z,85.47
2019-06-26T02:52:19.216Z,85.17
2019-06-26T02:53:19.213Z,85.87
2019-06-26T02:54:19.176Z,85.77
2019-06-26T02:55:19.180Z,85.77
2019-06-26T02:56:19.157Z,85.87
2019-06-26T02:57:19.139Z,85.87
2019-06-26T02:58:19.141Z,85.87
2019-06-26T02:59:19.169Z,85.77
2019-06-26T03:00:19.107Z,85.47
2019-06-26T03:01:19.107Z,85.91
2019-06-26T03:02:19.088Z,85.77
2019-06-26T03:03:19.072Z,85.87
2019-06-26T03:04:19.103Z,85.91
2019-06-26T03:05:19.085Z,86.11
2019-06-26T03:06:19.043Z,86.17
2019-06-26T03:07:19.071Z,86.31
2019-06-26T03:08:19.017Z,86.11
2019-06-26T03:09:19.014Z,87.11
2019-06-26T03:10:18.995Z,86.91
2019-06-26T03:11:19.023Z,86.81
2019-06-26T03:12:18.978Z,86.81
2019-06-26T03:13:18.956Z,86.95
2019-06-26T03:14:18.963Z,87.65
2019-06-26T03:15:18.940Z,87.45
2019-06-26T03:16:18.928Z,87.45
2019-06-26T03:17:18.980Z,87.25
2019-06-26T03:18:18.912Z,87.55
2019-06-26T03:19:18.902Z,87.35
2019-06-26T03:20:18.873Z,87.15
2019-06-26T03:21:18.869Z,87.15
2019-06-26T03:22:18.914Z,87.55
2019-06-26T03:23:19.038Z,87.25
2019-06-26T03:24:18.832Z,87.75
2019-06-26T03:25:18.826Z,86.95
2019-06-26T03:26:18.827Z,87.55
2019-06-26T03:27:18.809Z,87.65
2019-06-26T03:28:18.798Z,87.75
2019-06-26T03:29:18.851Z,87.45
2019-06-26T03:30:18.788Z,87.85
2019-06-26T03:31:18.756Z,87.95
2019-06-26T03:32:18.741Z,88.25
2019-06-26T03:33:18.733Z,87.85
2019-06-26T03:34:18.836Z,87.95
2019-06-26T03:35:18.773Z,87.95
2019-06-26T03:36:18.699Z,88.15
2019-06-26T03:37:18.706Z,88.05
2019-06-26T03:38:18.679Z,88.35
2019-06-26T03:39:18.684Z,88.35
2019-06-26T03:40:18.656Z,88.25
2019-06-26T03:41:18.711Z,88.25
2019-06-26T03:42:18.663Z,88.45
2019-06-26T03:43:18.620Z,88.55
2019-06-26T03:44:18.649Z,88.95
2019-06-26T03:45:25.671Z,88.25
2019-06-26T03:46:19.623Z,88.55
2019-06-26T03:47:18.641Z,88.45
2019-06-26T03:48:18.576Z,88.75
2019-06-26T03:49:18.574Z,88.45
2019-06-26T03:50:18.563Z,88.35
2019-06-26T03:51:18.595Z,88.35
2019-06-26T03:52:18.574Z,88.55
2019-06-26T03:53:18.540Z,88.35
2019-06-26T03:54:18.504Z,88.55
2019-06-26T03:55:18.484Z,88.85
2019-06-26T03:56:18.477Z,88.55
2019-06-26T03:57:18.458Z,88.55
2019-06-26T03:58:18.663Z,88.60
2019-06-26T03:59:18.433Z,89.20
2019-06-26T04:00:18.424Z,88.25
2019-06-26T04:01:18.492Z,89.01
2019-06-26T04:02:18.408Z,89.11
2019-06-26T04:03:18.405Z,89.31
2019-06-26T04:04:18.430Z,88.10
2019-06-26T04:05:18.370Z,87.91
2019-06-26T04:06:18.362Z,87.81
2019-06-26T04:07:18.345Z,88.40
2019-06-26T04:08:18.358Z,88.01
2019-06-26T04:09:18.326Z,88.01
2019-06-26T04:10:18.372Z,88.10
2019-06-26T04:11:18.320Z,88.40
2019-06-26T04:12:18.292Z,88.40
2019-06-26T04:13:18.281Z,88.21
2019-06-26T04:14:18.274Z,87.81
2019-06-26T04:15:18.257Z,87.81
2019-06-26T04:16:18.304Z,87.87
2019-06-26T04:17:18.258Z,87.37
2019-06-26T04:18:18.221Z,87.16
2019-06-26T04:19:18.208Z,87.07
2019-06-26T04:20:18.199Z,87.27
2019-06-26T04:21:18.189Z,86.97
2019-06-26T04:22:18.238Z,86.77
2019-06-26T04:23:18.169Z,86.87
2019-06-26T04:24:18.155Z,86.87
2019-06-26T04:25:18.148Z,86.72
2019-06-26T04:26:18.134Z,86.36
2019-06-26T04:27:18.121Z,87.16
2019-06-26T04:28:18.177Z,86.66
2019-06-26T04:29:18.097Z,86.66
2019-06-26T04:30:18.092Z,87.07
2019-06-26T04:31:18.101Z,87.02
2019-06-26T04:32:18.069Z,86.97
2019-06-26T04:33:18.058Z,87.07
2019-06-26T04:34:18.259Z,87.07
2019-06-26T04:35:18.034Z,87.07
2019-06-26T04:36:18.020Z,87.16
2019-06-26T04:37:18.009Z,86.97
2019-06-26T04:38:18.007Z,87.02
2019-06-26T04:39:17.987Z,86.63
2019-06-26T04:40:20.316Z,86.93
2019-06-26T04:41:17.965Z,86.22
2019-06-26T04:42:17.958Z,86.93
2019-06-26T04:43:17.943Z,86.63
2019-06-26T04:44:17.986Z,86.63
2019-06-26T04:45:17.943Z,86.19
2019-06-26T04:46:17.979Z,86.08
2019-06-26T04:47:17.904Z,86.19
2019-06-26T04:48:17.895Z,85.78
2019-06-26T04:49:17.890Z,85.78
2019-06-26T04:50:17.864Z,85.99
2019-06-26T04:51:17.859Z,85.28
2019-06-26T04:52:17.909Z,84.84
2019-06-26T04:53:17.838Z,85.14
2019-06-26T04:54:17.821Z,85.14
2019-06-26T04:55:17.815Z,85.35
2019-06-26T04:56:17.808Z,85.14
2019-06-26T04:57:17.789Z,84.95
2019-06-26T04:58:17.923Z,85.14
2019-06-26T04:59:17.772Z,85.14
2019-06-26T05:00:21.566Z,85.35
2019-06-26T05:01:17.751Z,84.81
2019-06-26T05:02:17.768Z,84.45
2019-06-26T05:03:17.728Z,84.81
2019-06-26T05:04:17.776Z,83.95
2019-06-26T05:05:17.703Z,84.45
2019-06-26T05:06:17.694Z,84.65
2019-06-26T05:07:17.680Z,83.71
2019-06-26T05:08:17.669Z,83.81
2019-06-26T05:09:17.744Z,84.31
2019-06-26T05:10:17.721Z,83.71
2019-06-26T05:11:17.641Z,84.17
2019-06-26T05:12:17.631Z,84.11
2019-06-26T05:13:17.615Z,84.01
2019-06-26T05:14:17.606Z,83.87
2019-06-26T05:15:17.596Z,84.17
2019-06-26T05:16:20.250Z,83.67
2019-06-26T05:17:17.575Z,83.97
2019-06-26T05:18:17.563Z,83.77
2019-06-26T05:19:17.555Z,84.03
2019-06-26T05:20:17.545Z,83.83
2019-06-26T05:21:17.529Z,84.03
2019-06-26T05:22:17.585Z,83.53
2019-06-26T05:23:17.508Z,83.33
2019-06-26T05:24:17.509Z,83.39
2019-06-26T05:25:17.491Z,83.00
2019-06-26T05:26:17.527Z,83.00
2019-06-26T05:27:17.472Z,83.09
2019-06-26T05:28:17.535Z,82.59
2019-06-26T05:29:17.447Z,82.59
2019-06-26T05:30:17.434Z,83.00
2019-06-26T05:31:17.433Z,82.76
2019-06-26T05:32:17.411Z,82.79
2019-06-26T05:33:17.401Z,82.76
2019-06-26T05:34:17.462Z,82.46
2019-06-26T05:35:17.385Z,82.56
2019-06-26T05:36:17.380Z,82.35
2019-06-26T05:37:17.367Z,82.35
2019-06-26T05:38:17.346Z,82.71
2019-06-26T05:39:17.339Z,82.22
2019-06-26T05:40:17.405Z,81.92
2019-06-26T05:41:17.320Z,81.82
2019-06-26T05:42:17.303Z,81.62
2019-06-26T05:43:17.304Z,81.23
2019-06-26T05:44:17.288Z,81.02
2019-06-26T05:45:17.272Z,81.62
2019-06-26T05:46:30.011Z,81.82
2019-06-26T05:47:18.255Z,81.23
2019-06-26T05:48:17.244Z,82.22
2019-06-26T05:49:17.279Z,82.32
2019-06-26T05:50:17.952Z,82.22
2019-06-26T05:51:17.208Z,82.42
2019-06-26T05:52:17.247Z,82.22
2019-06-26T05:53:17.247Z,81.82
2019-06-26T05:54:17.183Z,81.62
2019-06-26T05:55:17.163Z,80.83
2019-06-26T05:56:17.162Z,81.32
2019-06-26T05:57:17.144Z,80.93
2019-06-26T05:58:17.190Z,80.93
2019-06-26T05:59:17.144Z,80.99
2019-06-26T06:00:17.107Z,81.38
2019-06-26T06:01:17.097Z,80.39
2019-06-26T06:02:17.086Z,79.99
2019-06-26T06:03:17.073Z,79.90
2019-06-26T06:04:17.101Z,79.20
2019-06-26T06:05:17.067Z,80.55
2019-06-26T06:06:17.039Z,79.66
2019-06-26T06:07:17.025Z,79.26
2019-06-26T06:08:17.016Z,79.36
2019-06-26T06:09:17.022Z,79.96
2019-06-26T06:10:17.189Z,78.76
2019-06-26T06:11:16.985Z,78.36
2019-06-26T06:12:16.971Z,78.66
2019-06-26T06:13:16.957Z,79.06
2019-06-26T06:14:16.946Z,78.86
2019-06-26T06:15:16.935Z,78.66
2019-06-26T06:16:16.971Z,78.86
2019-06-26T06:17:16.932Z,78.42
2019-06-26T06:18:17.004Z,77.77
2019-06-26T06:19:16.901Z,77.53
2019-06-26T06:20:16.899Z,77.73
2019-06-26T06:21:16.981Z,77.83
2019-06-26T06:22:16.923Z,77.83
2019-06-26T06:23:16.854Z,78.17
2019-06-26T06:24:16.834Z,78.56
2019-06-26T06:25:16.847Z,78.47
2019-06-26T06:26:16.904Z,78.17
2019-06-26T06:27:16.821Z,79.26
2019-06-26T06:28:16.839Z,78.56
2019-06-26T06:29:16.802Z,77.73
2019-06-26T06:30:16.793Z,77.53
2019-06-26T06:31:16.756Z,77.29
2019-06-26T06:32:16.754Z,77.59
2019-06-26T06:33:16.742Z,77.40
2019-06-26T06:34:16.767Z,76.40
2019-06-26T06:35:16.712Z,76.61
2019-06-26T06:36:16.704Z,76.31
2019-06-26T06:37:16.689Z,76.50
2019-06-26T06:38:16.678Z,76.27
2019-06-26T06:39:16.677Z,75.67
2019-06-26T06:40:16.841Z,75.61
2019-06-26T06:41:16.656Z,75.91
2019-06-26T06:42:16.634Z,76.90
2019-06-26T06:43:16.623Z,76.90
2019-06-26T06:44:16.617Z,77.29
2019-06-26T06:45:16.621Z,77.40
2019-06-26T06:46:16.651Z,77.50
2019-06-26T06:47:16.580Z,77.50
2019-06-26T06:48:16.572Z,77.00
2019-06-26T06:49:16.563Z,77.36
2019-06-26T06:50:16.548Z,77.26
2019-06-26T06:51:16.556Z,76.86
2019-06-26T06:52:16.920Z,75.78
2019-06-26T06:53:16.513Z,76.46
2019-06-26T06:54:16.537Z,76.53
2019-06-26T06:55:16.494Z,76.53
2019-06-26T06:56:16.479Z,76.14
2019-06-26T06:57:16.473Z,75.60
2019-06-26T06:58:16.523Z,75.90
2019-06-26T06:59:16.451Z,75.56
2019-06-26T07:00:16.813Z,75.76
2019-06-26T07:01:16.424Z,75.70
2019-06-26T07:02:16.411Z,75.86
2019-06-26T07:03:16.416Z,75.31
2019-06-26T07:04:16.442Z,76.06
2019-06-26T07:05:16.384Z,75.86
2019-06-26T07:06:16.372Z,75.16
2019-06-26T07:07:16.364Z,75.37
2019-06-26T07:08:16.347Z,75.80
2019-06-26T07:09:16.345Z,76.39
2019-06-26T07:10:16.384Z,76.20
2019-06-26T07:11:16.325Z,76.10
2019-06-26T07:12:16.396Z,77.19
2019-06-26T07:13:16.303Z,76.69
2019-06-26T07:14:16.298Z,76.89
2019-06-26T07:15:16.272Z,77.09
2019-06-26T07:16:16.325Z,76.95
2019-06-26T07:17:21.100Z,76.16
2019-06-26T07:18:17.240Z,75.86
2019-06-26T07:19:16.242Z,75.86
2019-06-26T07:20:16.240Z,75.52
2019-06-26T07:21:16.214Z,74.84
2019-06-26T07:22:16.230Z,74.93
2019-06-26T07:23:16.207Z,75.33
2019-06-26T07:24:16.178Z,75.63
2019-06-26T07:25:16.170Z,75.23
2019-06-26T07:26:16.169Z,74.84
2019-06-26T07:27:16.158Z,75.52
2019-06-26T07:28:16.270Z,74.57
2019-06-26T07:29:16.123Z,75.67
2019-06-26T07:30:16.117Z,76.52
2019-06-26T07:31:16.100Z,75.52
2019-06-26T07:32:16.101Z,74.93
2019-06-26T07:33:16.090Z,75.33
2019-06-26T07:34:16.107Z,75.29
2019-06-26T07:35:16.072Z,74.21
2019-06-26T07:36:16.045Z,74.40
2019-06-26T07:37:16.042Z,73.97
2019-06-26T07:38:16.027Z,74.10
2019-06-26T07:39:16.017Z,74.40
2019-06-26T07:40:16.090Z,74.27
2019-06-26T07:41:16.011Z,73.58
2019-06-26T07:42:16.046Z,73.87
2019-06-26T07:43:16.738Z,73.14
2019-06-26T07:44:16.002Z,72.85
2019-06-26T07:45:15.950Z,72.95
2019-06-26T07:46:15.988Z,72.25
2019-06-26T07:47:23.059Z,72.16
2019-06-26T07:48:16.919Z,72.78
2019-06-26T07:49:15.942Z,73.34
2019-06-26T07:50:15.907Z,72.19
2019-06-26T07:51:15.914Z,73.18
2019-06-26T07:52:15.920Z,73.28
2019-06-26T07:53:15.865Z,72.29
2019-06-26T07:54:15.865Z,72.29
2019-06-26T07:55:15.869Z,72.69
2019-06-26T07:56:15.827Z,73.08
2019-06-26T07:57:15.823Z,72.49
2019-06-26T07:58:15.858Z,72.78
2019-06-26T07:59:15.840Z,72.65
2019-06-26T08:00:15.783Z,71.33
2019-06-26T08:01:15.776Z,71.14
2019-06-26T08:02:15.768Z,71.14
2019-06-26T08:03:15.755Z,70.74
2019-06-26T08:04:15.982Z,70.21
2019-06-26T08:05:15.743Z,70.01
2019-06-26T08:06:15.726Z,69.92
2019-06-26T08:07:15.707Z,70.44
2019-06-26T08:08:15.707Z,70.04
2019-06-26T08:09:15.696Z,70.15
2019-06-26T08:10:15.804Z,70.74
2019-06-26T08:11:15.667Z,70.25
2019-06-26T08:12:15.660Z,71.03
2019-06-26T08:13:15.729Z,70.01
2019-06-26T08:14:15.631Z,70.11
2019-06-26T08:15:15.625Z,69.92
2019-06-26T08:16:15.675Z,69.85
2019-06-26T08:17:15.616Z,70.04
2019-06-26T08:18:15.596Z,70.04
2019-06-26T08:19:15.571Z,69.42
2019-06-26T08:20:15.569Z,69.45
2019-06-26T08:21:15.552Z,70.61
2019-06-26T08:22:15.598Z,70.51
2019-06-26T08:23:15.606Z,70.21
2019-06-26T08:24:15.522Z,69.71
2019-06-26T08:25:15.517Z,69.88
2019-06-26T08:26:15.501Z,70.93
2019-06-26T08:27:15.488Z,69.26
2019-06-26T08:28:15.516Z,68.13
2019-06-26T08:29:15.489Z,67.65
2019-06-26T08:30:15.463Z,67.71
2019-06-26T08:31:15.448Z,66.63
2019-06-26T08:32:15.435Z,66.53
2019-06-26T08:33:15.427Z,66.43
2019-06-26T08:34:15.441Z,66.33
2019-06-26T08:35:15.485Z,65.84
2019-06-26T08:36:15.390Z,66.13
2019-06-26T08:37:15.431Z,66.23
2019-06-26T08:38:15.877Z,66.33
2019-06-26T08:39:15.377Z,66.13
2019-06-26T08:40:15.393Z,67.05
2019-06-26T08:41:15.357Z,66.75
2019-06-26T08:42:15.336Z,67.35
2019-06-26T08:43:15.313Z,68.04
2019-06-26T08:44:15.313Z,68.53
2019-06-26T08:45:15.292Z,67.32
2019-06-26T08:46:15.349Z,67.51
2019-06-26T08:47:15.275Z,66.99
2019-06-26T08:48:23.234Z,66.30
2019-06-26T08:49:25.480Z,65.70
2019-06-26T08:50:16.249Z,65.70
2019-06-26T08:51:15.228Z,66.39
2019-06-26T08:52:15.270Z,66.20
2019-06-26T08:53:15.211Z,66.46
2019-06-26T08:54:15.197Z,66.24
2019-06-26T08:55:15.211Z,65.15
2019-06-26T08:56:15.178Z,65.45
2019-06-26T08:57:15.637Z,64.17
2019-06-26T08:58:15.190Z,64.36
2019-06-26T08:59:15.140Z,65.01
2019-06-26T09:00:15.146Z,66.33
2019-06-26T09:01:15.203Z,65.80
2019-06-26T09:02:15.116Z,66.03
2019-06-26T09:03:15.099Z,66.33
2019-06-26T09:04:15.146Z,66.23
2019-06-26T09:05:15.080Z,66.30
2019-06-26T09:06:15.084Z,66.46
2019-06-26T09:07:15.068Z,65.25
2019-06-26T09:08:15.145Z,63.97
2019-06-26T09:09:15.041Z,63.78
2019-06-26T09:10:15.084Z,65.02
2019-06-26T09:11:15.062Z,64.56
2019-06-26T09:12:15.027Z,64.66
2019-06-26T09:13:15.030Z,64.46
2019-06-26T09:14:15.010Z,63.57
2019-06-26T09:15:14.980Z,64.56
2019-06-26T09:16:15.059Z,64.95
2019-06-26T09:17:15.004Z,64.56
2019-06-26T09:18:14.957Z,65.31
2019-06-26T09:19:14.955Z,63.57
2019-06-26T09:20:14.925Z,64.04
2019-06-26T09:21:14.999Z,63.12
2019-06-26T09:22:14.939Z,63.12
2019-06-26T09:23:14.897Z,62.82
2019-06-26T09:24:14.879Z,62.43
2019-06-26T09:25:22.173Z,62.82
2019-06-26T09:26:15.871Z,62.43
2019-06-26T09:27:15.324Z,62.43
2019-06-26T09:28:14.890Z,63.45
2019-06-26T09:29:14.830Z,62.56
2019-06-26T09:30:14.817Z,62.43
2019-06-26T09:31:14.820Z,62.53
2019-06-26T09:32:14.792Z,61.84
2019-06-26T09:33:14.790Z,62.40
2019-06-26T09:34:14.883Z,60.73
2019-06-26T09:35:14.769Z,59.52
2019-06-26T09:36:14.753Z,59.89
2019-06-26T09:37:14.756Z,59.79
2019-06-26T09:38:14.736Z,60.87
2019-06-26T09:39:14.718Z,60.47
2019-06-26T09:40:14.757Z,60.45
2019-06-26T09:41:14.702Z,59.17
2019-06-26T09:42:14.697Z,58.97
2019-06-26T09:43:14.701Z,58.97
2019-06-26T09:44:14.723Z,58.91
2019-06-26T09:45:14.659Z,60.08
2019-06-26T09:46:14.702Z,59.56
2019-06-26T09:47:15.660Z,59.37
2019-06-26T09:48:14.628Z,58.91
2019-06-26T09:49:14.619Z,59.50
2019-06-26T09:50:14.644Z,59.00
2019-06-26T09:51:14.594Z,59.89
2019-06-26T09:52:14.637Z,59.86
2019-06-26T09:53:14.785Z,59.27
2019-06-26T09:54:14.583Z,59.34
2019-06-26T09:55:14.553Z,58.36
2019-06-26T09:56:14.544Z,57.77
2019-06-26T09:57:14.564Z,58.65
2019-06-26T09:58:14.554Z,59.14
2019-06-26T09:59:14.527Z,58.85
2019-06-26T10:00:14.538Z,59.24
2019-06-26T10:01:14.496Z,59.14
2019-06-26T10:02:14.485Z,59.05
2019-06-26T10:03:14.471Z,58.95
2019-06-26T10:04:14.584Z,60.68
2019-06-26T10:05:14.460Z,59.31
2019-06-26T10:06:14.478Z,59.58
2019-06-26T10:07:14.514Z,58.69
2019-06-26T10:08:14.446Z,57.62
2019-06-26T10:09:14.429Z,57.81
2019-06-26T10:10:14.485Z,57.62
2019-06-26T10:11:14.402Z,57.81
2019-06-26T10:12:14.376Z,57.32
2019-06-26T10:13:14.445Z,57.74
2019-06-26T10:14:14.394Z,57.84
2019-06-26T10:15:14.377Z,59.31
2019-06-26T10:16:14.462Z,58.98
2019-06-26T10:17:14.351Z,58.01
2019-06-26T10:18:14.322Z,57.52
2019-06-26T10:19:14.360Z,56.63
2019-06-26T10:20:14.356Z,57.52
2019-06-26T10:21:14.285Z,57.12
2019-06-26T10:22:14.384Z,57.22
2019-06-26T10:23:14.277Z,57.39
2019-06-26T10:24:14.261Z,57.39
2019-06-26T10:25:14.256Z,57.20
2019-06-26T10:26:14.291Z,56.21
2019-06-26T10:27:14.286Z,57.00
2019-06-26T10:28:14.268Z,57.32
2019-06-26T10:29:14.220Z,57.42
2019-06-26T10:30:14.321Z,56.73
2019-06-26T10:31:17.470Z,55.39
2019-06-26T10:32:14.183Z,57.38
2019-06-26T10:33:14.158Z,58.36
2019-06-26T10:34:14.219Z,57.84
2019-06-26T10:35:14.211Z,56.76
2019-06-26T10:36:14.152Z,57.22
2019-06-26T10:37:14.128Z,56.93
2019-06-26T10:38:14.183Z,56.83
2019-06-26T10:39:14.084Z,57.32
2019-06-26T10:40:16.329Z,57.29
2019-06-26T10:41:14.129Z,55.43
2019-06-26T10:42:14.049Z,56.02
2019-06-26T10:43:14.050Z,56.81
2019-06-26T10:44:14.030Z,57.10
2019-06-26T10:45:14.032Z,55.73
2019-06-26T10:46:14.083Z,56.63
2019-06-26T10:47:14.006Z,56.81
2019-06-26T10:48:13.988Z,57.42
2019-06-26T10:49:26.619Z,57.29
2019-06-26T10:50:14.962Z,57.17
2019-06-26T10:51:13.979Z,57.07
2019-06-26T10:52:14.154Z,55.77
2019-06-26T10:53:13.971Z,55.96
2019-06-26T10:54:13.941Z,56.56
2019-06-26T10:55:13.917Z,55.47
2019-06-26T10:56:13.902Z,55.01
2019-06-26T10:57:14.091Z,55.96
2019-06-26T10:58:13.950Z,55.57
2019-06-26T10:59:13.873Z,55.28
2019-06-26T11:00:13.891Z,55.28
2019-06-26T11:01:13.848Z,54.40
2019-06-26T11:02:16.871Z,54.30
2019-06-26T11:03:13.904Z,55.57
2019-06-26T11:04:13.869Z,55.47
2019-06-26T11:05:13.810Z,54.79
2019-06-26T11:06:13.800Z,54.86
2019-06-26T11:07:13.785Z,54.17
2019-06-26T11:08:13.799Z,53.06
2019-06-26T11:09:13.774Z,53.72
2019-06-26T11:10:13.808Z,54.60
2019-06-26T11:11:13.754Z,54.67
2019-06-26T11:12:13.740Z,54.25
2019-06-26T11:13:13.726Z,53.30
2019-06-26T11:14:13.748Z,52.88
2019-06-26T11:15:13.707Z,53.20
2019-06-26T11:16:13.754Z,53.17
2019-06-26T11:17:13.696Z,53.88
2019-06-26T11:18:13.701Z,53.47
2019-06-26T11:19:13.664Z,53.37
2019-06-26T11:20:13.671Z,53.47
2019-06-26T11:21:13.646Z,52.76
2019-06-26T11:22:13.685Z,52.17
2019-06-26T11:23:13.621Z,51.88
2019-06-26T11:24:13.609Z,51.49
2019-06-26T11:25:13.600Z,50.63
2019-06-26T11:26:13.617Z,51.10
2019-06-26T11:27:13.578Z,50.61
2019-06-26T11:28:13.614Z,51.29
2019-06-26T11:29:13.636Z,50.90
2019-06-26T11:30:13.549Z,50.68
2019-06-26T11:31:13.536Z,50.88
2019-06-26T11:32:13.565Z,49.32
2019-06-26T11:33:13.515Z,49.22
2019-06-26T11:34:13.536Z,47.73
2019-06-26T11:35:13.579Z,48.26
2019-06-26T11:36:13.491Z,50.12
2019-06-26T11:37:13.476Z,48.65
2019-06-26T11:38:13.481Z,50.32
2019-06-26T11:39:13.476Z,50.78
2019-06-26T11:40:13.524Z,50.20
2019-06-26T11:41:13.432Z,48.63
2019-06-26T11:42:13.429Z,49.22
2019-06-26T11:43:13.436Z,48.44
2019-06-26T11:44:13.413Z,48.73
2019-06-26T11:45:13.441Z,48.93
2019-06-26T11:46:13.459Z,49.88
2019-06-26T11:47:13.373Z,48.51
2019-06-26T11:48:13.400Z,47.80
2019-06-26T11:49:13.355Z,48.39
2019-06-26T11:50:13.348Z,47.80
2019-06-26T11:51:13.360Z,47.41
2019-06-26T11:52:13.373Z,47.09
2019-06-26T11:53:13.319Z,46.61
2019-06-26T11:54:13.341Z,46.34
2019-06-26T11:55:13.310Z,46.44
2019-06-26T11:56:13.294Z,46.24
2019-06-26T11:57:13.301Z,45.05
2019-06-26T11:58:13.463Z,45.15
2019-06-26T11:59:13.258Z,45.83
2019-06-26T12:00:13.243Z,45.22
2019-06-26T12:01:13.255Z,44.32
2019-06-26T12:02:13.252Z,43.74
2019-06-26T12:03:13.498Z,43.15
2019-06-26T12:04:13.270Z,45.49
2019-06-26T12:05:13.196Z,43.64
2019-06-26T12:06:18.909Z,42.28
2019-06-26T12:07:14.179Z,42.96
2019-06-26T12:08:13.161Z,42.96
2019-06-26T12:09:13.181Z,41.57
2019-06-26T12:10:13.273Z,42.82
2019-06-26T12:11:13.138Z,42.04
2019-06-26T12:12:13.128Z,41.09
2019-06-26T12:13:13.112Z,43.04
2019-06-26T12:14:13.126Z,42.25
2019-06-26T12:15:13.096Z,43.04
2019-06-26T12:16:13.130Z,41.65
2019-06-26T12:17:13.108Z,41.75
2019-06-26T12:18:13.068Z,41.14
2019-06-26T12:19:13.071Z,40.17
2019-06-26T12:20:19.280Z,38.32
2019-06-26T12:21:14.094Z,38.79
2019-06-26T12:22:13.034Z,40.15
2019-06-26T12:23:13.084Z,40.17
2019-06-26T12:24:13.028Z,39.98
2019-06-26T12:25:13.016Z,40.47
2019-06-26T12:26:12.988Z,40.06
2019-06-26T12:27:13.032Z,40.95
2019-06-26T12:28:13.014Z,40.75
2019-06-26T12:29:12.971Z,40.95
2019-06-26T12:30:12.984Z,40.75
2019-06-26T12:31:12.958Z,40.00
2019-06-26T12:32:12.986Z,40.17
2019-06-26T12:33:12.973Z,40.08
2019-06-26T12:34:12.935Z,40.47
2019-06-26T12:35:12.908Z,38.91
2019-06-26T12:36:12.910Z,39.76
2019-06-26T12:37:12.922Z,39.96
2019-06-26T12:38:12.879Z,40.83
2019-06-26T12:39:12.988Z,41.71
2019-06-26T12:40:12.904Z,40.73
2019-06-26T12:41:12.842Z,41.44
2019-06-26T12:42:12.833Z,40.95
2019-06-26T12:43:12.825Z,41.75
2019-06-26T12:44:12.872Z,41.46
2019-06-26T12:45:12.869Z,41.53
2019-06-26T12:46:12.831Z,41.14
2019-06-26T12:47:12.787Z,41.34
2019-06-26T12:48:16.009Z,40.66
2019-06-26T12:49:12.774Z,41.13
2019-06-26T12:50:12.768Z,39.67
2019-06-26T12:51:12.791Z,41.05
2019-06-26T12:52:16.747Z,41.34